createdAt,value
2023-02-21T00:00:00.165Z,24.13
2023-02-21T00:02:45.275Z,25.63
2023-02-21T00:05:30.004Z,23.97
2023-02-21T00:08:15.210Z,25.20
2023-02-21T00:10:59.971Z,25.97
2023-02-21T00:13:44.845Z,27.40
2023-02-21T00:16:34.721Z,28.00
2023-02-21T00:19:19.506Z,26.10
2023-02-21T00:22:04.210Z,26.43
2023-02-21T00:24:48.915Z,25.17
2023-02-21T00:27:33.714Z,25.30
2023-02-21T00:30:18.412Z,26.07
2023-02-21T00:33:06.019Z,27.07
2023-02-21T00:35:52.110Z,28.97
2023-02-21T00:38:36.840Z,29.97
2023-02-21T00:41:21.988Z,27.67
2023-02-21T00:44:07.672Z,32.03
2023-02-21T00:46:52.626Z,30.37
2023-02-21T00:49:37.571Z,30.03
2023-02-21T00:52:22.531Z,30.73
2023-02-21T00:55:07.330Z,29.10
2023-02-21T00:57:52.187Z,29.67
2023-02-21T01:00:41.907Z,33.33
2023-02-21T01:03:28.207Z,31.37
2023-02-21T01:06:15.399Z,32.30
2023-02-21T01:09:04.316Z,32.63
2023-02-21T01:11:50.847Z,31.87
2023-02-21T01:14:35.917Z,33.83
2023-02-21T01:17:20.853Z,32.73
2023-02-21T01:20:05.599Z,30.97
2023-02-21T01:22:52.428Z,30.27
2023-02-21T01:25:38.760Z,28.87
2023-02-21T01:28:23.684Z,26.00
2023-02-21T01:31:08.457Z,28.87
2023-02-21T01:33:58.688Z,27.57
2023-02-21T01:36:44.132Z,29.43
2023-02-21T01:39:29.817Z,27.90
2023-02-21T01:42:15.025Z,29.03
2023-02-21T01:45:04.695Z,28.40
2023-02-21T01:47:51.022Z,30.00
2023-02-21T01:50:43.777Z,31.33
2023-02-21T01:53:34.610Z,31.70
2023-02-21T01:56:20.678Z,31.17
2023-02-21T01:59:08.588Z,32.10
2023-02-21T02:02:04.715Z,31.20
2023-02-21T02:04:52.032Z,31.57
2023-02-21T02:07:37.960Z,31.80
2023-02-21T02:10:24.914Z,35.47
2023-02-21T02:13:12.837Z,37.00
2023-02-21T02:16:02.720Z,36.67
2023-02-21T02:18:37.922Z,35.63
2023-02-21T02:21:42.390Z,31.13
2023-02-21T02:24:22.109Z,32.17
2023-02-21T02:27:06.760Z,32.63
2023-02-21T02:30:04.148Z,32.20
2023-02-21T02:33:08.988Z,31.67
2023-02-21T02:35:41.851Z,34.60
2023-02-21T02:38:24.404Z,33.30
2023-02-21T02:41:03.809Z,32.00
2023-02-21T02:43:38.587Z,33.40
2023-02-21T02:46:10.732Z,36.00
2023-02-21T02:48:43.668Z,35.03
2023-02-21T02:51:14.795Z,36.67
2023-02-21T02:53:43.054Z,33.93
2023-02-21T02:56:14.862Z,34.43
2023-02-21T02:58:49.208Z,35.43
2023-02-21T03:01:54.777Z,36.77
2023-02-21T03:04:48.999Z,34.67
2023-02-21T03:07:47.810Z,33.40
2023-02-21T03:10:28.006Z,30.17
2023-02-21T03:13:16.323Z,34.63
2023-02-21T03:15:54.925Z,31.07
2023-02-21T03:18:32.628Z,33.37
2023-02-21T03:21:01.509Z,34.00
2023-02-21T03:23:30.948Z,32.27
2023-02-21T03:26:01.244Z,32.73
2023-02-21T03:28:29.813Z,34.57
2023-02-21T03:30:58.721Z,32.77
2023-02-21T03:33:25.457Z,31.03
2023-02-21T03:35:53.126Z,31.40
2023-02-21T03:38:19.506Z,34.17
2023-02-21T03:40:45.857Z,31.70
2023-02-21T03:43:12.368Z,33.33
2023-02-21T03:45:49.552Z,32.83
2023-02-21T03:48:30.932Z,30.53
2023-02-21T03:51:01.677Z,31.10
2023-02-21T03:53:33.736Z,31.43
2023-02-21T03:56:01.895Z,32.80
2023-02-21T03:58:38.419Z,33.30
2023-02-21T04:01:05.775Z,34.47
2023-02-21T04:03:32.725Z,32.90
2023-02-21T04:06:03.998Z,35.63
2023-02-21T04:08:30.922Z,33.27
2023-02-21T04:10:57.288Z,32.00
2023-02-21T04:13:27.706Z,30.63
2023-02-21T04:15:55.474Z,33.00
2023-02-21T04:18:21.989Z,33.93
2023-02-21T04:20:50.723Z,32.23
2023-02-21T04:23:19.890Z,35.13
2023-02-21T04:25:46.837Z,33.23
2023-02-21T04:28:18.213Z,34.93
2023-02-21T04:30:44.598Z,34.53
2023-02-21T04:33:11.413Z,33.80
2023-02-21T04:35:37.809Z,35.03
2023-02-21T04:38:12.323Z,33.17
2023-02-21T04:40:38.674Z,34.83
2023-02-21T04:43:05.025Z,32.67
2023-02-21T04:45:31.449Z,31.90
2023-02-21T04:47:57.842Z,32.23
2023-02-21T04:50:24.181Z,31.97
2023-02-21T04:52:50.572Z,32.73
2023-02-21T04:55:16.983Z,30.07
2023-02-21T04:57:43.354Z,31.40
2023-02-21T05:00:11.197Z,31.27
2023-02-21T05:02:37.527Z,31.03
2023-02-21T05:05:03.951Z,30.53
2023-02-21T05:07:30.328Z,31.00
2023-02-21T05:09:56.655Z,29.90
2023-02-21T05:12:23.063Z,31.60
2023-02-21T05:14:50.210Z,33.03
2023-02-21T05:17:16.610Z,33.87
2023-02-21T05:19:43.052Z,32.27
2023-02-21T05:22:09.516Z,33.03
2023-02-21T05:24:42.420Z,33.37
2023-02-21T05:27:11.360Z,32.47
2023-02-21T05:29:37.937Z,33.07
2023-02-21T05:32:04.336Z,32.37
2023-02-21T05:34:30.792Z,33.93
2023-02-21T05:36:57.170Z,33.47
2023-02-21T05:39:23.586Z,31.83
2023-02-21T05:41:51.087Z,33.00
2023-02-21T05:44:18.169Z,32.80
2023-02-21T05:46:45.877Z,34.13
2023-02-21T05:49:12.342Z,32.50
2023-02-21T05:51:41.931Z,34.70
2023-02-21T05:54:09.915Z,33.07
2023-02-21T05:56:41.168Z,34.57
2023-02-21T05:59:08.712Z,33.00
2023-02-21T06:01:35.469Z,34.67
2023-02-21T06:04:01.893Z,35.83
2023-02-21T06:06:28.285Z,35.57
2023-02-21T06:08:54.684Z,34.37
2023-02-21T06:11:28.035Z,34.33
2023-02-21T06:13:56.668Z,34.50
2023-02-21T06:16:23.865Z,36.43
2023-02-21T06:18:55.347Z,34.83
2023-02-21T06:21:21.850Z,33.43
2023-02-21T06:23:48.326Z,34.37
2023-02-21T06:26:15.306Z,35.27
2023-02-21T06:28:41.693Z,34.43
2023-02-21T06:31:08.261Z,34.87
2023-02-21T06:33:34.787Z,32.43
2023-02-21T06:36:10.714Z,33.30
2023-02-21T06:38:37.161Z,31.67
2023-02-21T06:41:08.064Z,34.43
2023-02-21T06:43:36.486Z,33.53
2023-02-21T06:46:04.486Z,33.33
2023-02-21T06:48:31.197Z,32.63
2023-02-21T06:50:57.640Z,35.07
2023-02-21T06:53:23.978Z,34.60
2023-02-21T06:55:50.349Z,35.50
2023-02-21T06:58:16.732Z,35.73
2023-02-21T07:00:43.086Z,37.93
2023-02-21T07:03:09.413Z,38.40
2023-02-21T07:05:37.598Z,36.27
2023-02-21T07:08:04.430Z,39.77
2023-02-21T07:10:31.179Z,36.60
2023-02-21T07:12:57.555Z,37.33
2023-02-21T07:15:23.879Z,37.27
2023-02-21T07:17:50.327Z,38.63
2023-02-21T07:20:16.827Z,38.10
2023-02-21T07:22:43.189Z,35.27
2023-02-21T07:25:15.534Z,38.47
2023-02-21T07:27:41.914Z,40.70
2023-02-21T07:30:09.437Z,37.43
2023-02-21T07:32:35.807Z,37.90
2023-02-21T07:35:02.249Z,40.50
2023-02-21T07:37:28.566Z,40.07
2023-02-21T07:39:54.903Z,37.53
2023-02-21T07:42:21.210Z,35.47
2023-02-21T07:44:47.838Z,37.33
2023-02-21T07:47:14.210Z,37.17
2023-02-21T07:49:41.412Z,36.73
2023-02-21T07:52:07.804Z,36.07
2023-02-21T07:54:34.119Z,35.70
2023-02-21T07:57:00.443Z,37.40
2023-02-21T07:59:26.805Z,39.43
2023-02-21T08:01:53.464Z,39.37
2023-02-21T08:04:21.161Z,37.20
2023-02-21T08:06:49.208Z,37.43
2023-02-21T08:09:16.227Z,37.83
2023-02-21T08:11:42.560Z,37.00
2023-02-21T08:14:08.928Z,32.37
2023-02-21T08:16:35.341Z,36.10
2023-02-21T08:19:01.726Z,35.57
2023-02-21T08:21:28.068Z,40.27
2023-02-21T08:23:55.328Z,36.47
2023-02-21T08:26:22.626Z,39.10
2023-02-21T08:28:48.978Z,34.40
2023-02-21T08:31:15.682Z,33.10
2023-02-21T08:33:42.193Z,32.43
2023-02-21T08:36:08.578Z,34.63
2023-02-21T08:38:34.912Z,29.53
2023-02-21T08:41:02.771Z,34.50
2023-02-21T08:43:29.203Z,35.57
2023-02-21T08:45:55.533Z,37.80
2023-02-21T08:48:21.855Z,37.73
2023-02-21T08:50:48.276Z,34.90
2023-02-21T08:53:15.556Z,33.37
2023-02-21T08:55:42.980Z,33.07
2023-02-21T08:58:10.809Z,31.90
2023-02-21T09:00:37.204Z,32.63
2023-02-21T09:03:03.713Z,32.07
2023-02-21T09:05:31.711Z,32.07
2023-02-21T09:08:01.259Z,32.23
2023-02-21T09:10:35.837Z,31.93
2023-02-21T09:13:03.655Z,29.77
2023-02-21T09:15:30.138Z,31.23
2023-02-21T09:17:56.754Z,30.40
2023-02-21T09:20:25.429Z,30.03
2023-02-21T09:22:52.297Z,31.17
2023-02-21T09:25:24.363Z,31.23
2023-02-21T09:27:53.342Z,31.40
2023-02-21T09:30:25.957Z,32.50
2023-02-21T09:32:52.511Z,30.63
2023-02-21T09:35:19.086Z,32.30
2023-02-21T09:37:46.607Z,32.93
2023-02-21T09:40:29.226Z,32.80
2023-02-21T09:42:58.622Z,32.10
2023-02-21T09:45:29.546Z,28.90
2023-02-21T09:47:59.296Z,30.17
2023-02-21T09:50:31.073Z,31.10
2023-02-21T09:52:58.686Z,30.90
2023-02-21T09:55:35.336Z,31.53
2023-02-21T09:58:02.749Z,27.47
2023-02-21T10:00:37.984Z,31.63
2023-02-21T10:03:19.286Z,31.37
2023-02-21T10:05:51.027Z,30.47
2023-02-21T10:08:59.380Z,30.20
2023-02-21T10:11:31.246Z,30.50
2023-02-21T10:14:22.192Z,28.93
2023-02-21T10:16:59.551Z,27.57
2023-02-21T10:19:32.432Z,28.00
2023-02-21T10:22:00.887Z,29.37
2023-02-21T10:24:28.710Z,28.80
2023-02-21T10:27:05.570Z,29.23
2023-02-21T10:29:47.224Z,30.90
2023-02-21T10:32:14.334Z,30.87
2023-02-21T10:34:46.300Z,28.77
2023-02-21T10:37:35.942Z,28.00
2023-02-21T10:40:22.178Z,28.00
2023-02-21T10:42:56.480Z,29.17
2023-02-21T10:45:32.655Z,30.23
2023-02-21T10:48:06.382Z,29.80
2023-02-21T10:50:59.323Z,29.57
2023-02-21T10:53:40.315Z,29.10
2023-02-21T10:56:16.403Z,29.77
2023-02-21T10:58:50.090Z,31.00
2023-02-21T11:01:37.683Z,30.50
2023-02-21T11:04:24.296Z,30.83
2023-02-21T11:07:05.310Z,29.33
2023-02-21T11:09:34.874Z,28.43
2023-02-21T11:12:03.903Z,29.43
2023-02-21T11:14:31.488Z,29.73
2023-02-21T11:17:07.176Z,29.07
2023-02-21T11:19:52.663Z,28.27
2023-02-21T11:22:48.957Z,29.47
2023-02-21T11:25:25.934Z,30.93
2023-02-21T11:28:16.652Z,28.13
2023-02-21T11:31:01.316Z,28.23
2023-02-21T11:33:29.056Z,26.93
2023-02-21T11:36:16.956Z,25.30
2023-02-21T11:38:47.084Z,28.83
2023-02-21T11:41:28.298Z,28.60
2023-02-21T11:43:55.723Z,27.97
2023-02-21T11:46:33.005Z,30.10
2023-02-21T11:49:22.884Z,29.03
2023-02-21T11:51:58.594Z,27.47
2023-02-21T11:54:28.233Z,27.40
2023-02-21T11:57:04.392Z,26.43
2023-02-21T12:00:09.200Z,29.17
2023-02-21T12:02:57.727Z,29.53
2023-02-21T12:05:40.087Z,31.03
2023-02-21T12:08:36.454Z,29.10
2023-02-21T12:11:11.647Z,29.60
2023-02-21T12:13:49.757Z,28.67
2023-02-21T12:16:30.982Z,28.93
2023-02-21T12:19:34.897Z,29.70
2023-02-21T12:22:19.533Z,27.93
2023-02-21T12:25:08.813Z,29.53
2023-02-21T12:27:55.866Z,29.70
2023-02-21T12:30:40.474Z,29.37
2023-02-21T12:33:51.044Z,28.33
2023-02-21T12:36:38.879Z,28.20
2023-02-21T12:39:28.794Z,27.87
2023-02-21T12:42:16.684Z,27.63
2023-02-21T12:45:13.947Z,29.10
2023-02-21T12:47:56.451Z,26.20
2023-02-21T12:50:27.297Z,27.53
2023-02-21T12:53:12.677Z,23.03
2023-02-21T12:55:54.006Z,25.67
2023-02-21T12:58:32.427Z,26.27
2023-02-21T13:01:06.738Z,25.07
2023-02-21T13:03:42.342Z,27.47
2023-02-21T13:06:33.784Z,27.60
2023-02-21T13:09:05.923Z,26.20
2023-02-21T13:12:01.027Z,26.70
2023-02-21T13:14:33.841Z,25.40
2023-02-21T13:17:00.304Z,27.60
2023-02-21T13:19:42.011Z,27.63
2023-02-21T13:22:41.936Z,26.33
2023-02-21T13:25:39.394Z,27.90
2023-02-21T13:28:17.357Z,29.53
2023-02-21T13:30:51.815Z,29.30
2023-02-21T13:33:28.259Z,28.03
2023-02-21T13:35:58.646Z,28.27
2023-02-21T13:38:27.574Z,27.83
2023-02-21T13:41:05.844Z,29.07
2023-02-21T13:43:36.578Z,29.10
2023-02-21T13:46:45.176Z,30.93
2023-02-21T13:49:42.577Z,33.17
2023-02-21T13:52:24.205Z,28.87
2023-02-21T13:55:15.566Z,29.37
2023-02-21T13:57:43.516Z,30.17
2023-02-21T14:00:24.975Z,31.80
2023-02-21T14:03:12.473Z,31.53
2023-02-21T14:05:53.698Z,31.17
2023-02-21T14:08:58.539Z,29.80
2023-02-21T14:11:28.683Z,28.57
2023-02-21T14:13:58.497Z,29.30
2023-02-21T14:16:32.582Z,30.23
2023-02-21T14:19:27.175Z,29.33
2023-02-21T14:21:59.773Z,27.73
2023-02-21T14:24:29.307Z,27.40
2023-02-21T14:27:01.579Z,26.77
2023-02-21T14:29:32.654Z,28.80
2023-02-21T14:32:02.323Z,25.43
2023-02-21T14:34:46.802Z,29.47
2023-02-21T14:37:21.747Z,27.53
2023-02-21T14:40:14.071Z,27.63
2023-02-21T14:43:04.849Z,27.10
2023-02-21T14:45:44.603Z,26.27
2023-02-21T14:48:39.213Z,26.83
2023-02-21T14:51:18.008Z,26.57
2023-02-21T14:54:00.407Z,26.20
2023-02-21T14:56:35.783Z,25.03
2023-02-21T14:59:20.193Z,25.80
2023-02-21T15:02:28.228Z,24.93
2023-02-21T15:05:04.739Z,23.53
2023-02-21T15:07:48.531Z,24.60
2023-02-21T15:10:21.893Z,22.57
2023-02-21T15:12:58.868Z,25.37
2023-02-21T15:15:30.065Z,25.13
2023-02-21T15:18:03.247Z,26.33
2023-02-21T15:20:30.788Z,28.77
2023-02-21T15:23:01.616Z,27.87
2023-02-21T15:25:28.111Z,29.60
2023-02-21T15:27:57.767Z,28.63
2023-02-21T15:30:34.834Z,29.93
2023-02-21T15:33:20.116Z,30.13
2023-02-21T15:35:51.431Z,29.70
2023-02-21T15:38:26.643Z,35.00
2023-02-21T15:40:56.656Z,30.93
2023-02-21T15:43:46.167Z,29.73
2023-02-21T15:46:19.393Z,30.80
2023-02-21T15:48:47.429Z,32.53
2023-02-21T15:51:14.781Z,31.13
2023-02-21T15:53:41.356Z,31.80
2023-02-21T15:56:25.576Z,30.50
2023-02-21T15:59:10.788Z,31.03
2023-02-21T16:01:37.561Z,30.63
2023-02-21T16:04:21.451Z,32.20
2023-02-21T16:06:54.308Z,35.30
2023-02-21T16:09:27.864Z,32.83
2023-02-21T16:12:01.873Z,35.03
2023-02-21T16:14:56.144Z,34.80
2023-02-21T16:17:41.032Z,33.87
2023-02-21T16:20:20.582Z,35.07
2023-02-21T16:23:08.249Z,32.90
2023-02-21T16:25:35.117Z,33.87
2023-02-21T16:28:02.058Z,34.57
2023-02-21T16:30:30.835Z,33.83
2023-02-21T16:33:03.673Z,34.57
2023-02-21T16:35:32.002Z,35.00
2023-02-21T16:38:00.234Z,31.90
2023-02-21T16:40:33.255Z,33.03
2023-02-21T16:43:01.922Z,31.70
2023-02-21T16:45:29.952Z,31.40
2023-02-21T16:47:59.018Z,34.80
2023-02-21T16:50:31.006Z,33.43
2023-02-21T16:52:58.057Z,33.50
2023-02-21T16:55:24.527Z,31.70
2023-02-21T16:57:54.092Z,32.27
2023-02-21T17:00:21.941Z,33.30
2023-02-21T17:02:49.507Z,33.17
2023-02-21T17:05:16.576Z,31.73
2023-02-21T17:07:43.295Z,33.83
2023-02-21T17:10:11.226Z,30.23
2023-02-21T17:12:37.580Z,31.77
2023-02-21T17:15:05.026Z,30.70
2023-02-21T17:17:31.479Z,31.50
2023-02-21T17:19:57.862Z,33.47
2023-02-21T17:22:24.220Z,30.63
2023-02-21T17:24:50.642Z,33.10
2023-02-21T17:27:16.984Z,30.73
2023-02-21T17:29:43.332Z,31.03
2023-02-21T17:32:09.756Z,29.90
2023-02-21T17:34:37.246Z,30.90
2023-02-21T17:37:04.436Z,29.17
2023-02-21T17:39:31.189Z,29.70
2023-02-21T17:41:57.571Z,28.03
2023-02-21T17:44:26.481Z,30.80
2023-02-21T17:46:56.066Z,35.53
2023-02-21T17:49:25.068Z,33.07
2023-02-21T17:51:52.414Z,33.17
2023-02-21T17:54:22.258Z,31.33
2023-02-21T17:56:49.165Z,31.93
2023-02-21T17:59:16.265Z,30.93
2023-02-21T18:01:42.842Z,31.97
2023-02-21T18:04:09.835Z,30.33
2023-02-21T18:06:36.551Z,33.10
2023-02-21T18:09:05.700Z,30.10
2023-02-21T18:11:32.034Z,29.93
2023-02-21T18:13:58.573Z,30.00
2023-02-21T18:16:24.984Z,31.97
2023-02-21T18:18:51.408Z,31.43
2023-02-21T18:21:18.870Z,31.20
2023-02-21T18:23:46.424Z,30.40
2023-02-21T18:26:13.350Z,32.07
2023-02-21T18:28:40.194Z,27.60
2023-02-21T18:31:07.575Z,28.50
2023-02-21T18:33:34.784Z,27.13
2023-02-21T18:36:01.153Z,27.17
2023-02-21T18:38:28.092Z,29.33
2023-02-21T18:40:54.601Z,27.97
2023-02-21T18:43:26.908Z,27.27
2023-02-21T18:45:54.811Z,27.97
2023-02-21T18:48:22.825Z,28.13
2023-02-21T18:50:49.868Z,29.00
2023-02-21T18:53:17.187Z,28.07
2023-02-21T18:55:43.779Z,30.20
2023-02-21T18:58:11.102Z,29.50
2023-02-21T19:00:39.441Z,29.37
2023-02-21T19:03:08.255Z,28.97
2023-02-21T19:05:35.253Z,27.77
2023-02-21T19:08:01.663Z,28.43
2023-02-21T19:10:29.047Z,27.23
2023-02-21T19:12:59.080Z,25.77
2023-02-21T19:15:26.429Z,26.77
2023-02-21T19:17:52.759Z,28.03
2023-02-21T19:20:19.663Z,25.73
2023-02-21T19:22:46.456Z,25.90
2023-02-21T19:25:14.483Z,25.70
2023-02-21T19:27:42.726Z,23.97
2023-02-21T19:30:10.292Z,23.57
2023-02-21T19:32:37.354Z,24.73
2023-02-21T19:35:08.050Z,25.90
2023-02-21T19:37:35.886Z,23.93
2023-02-21T19:40:03.558Z,22.23
2023-02-21T19:42:29.898Z,22.90
2023-02-21T19:44:56.216Z,22.23
2023-02-21T19:47:22.557Z,24.10
2023-02-21T19:49:48.883Z,22.90
2023-02-21T19:52:15.234Z,21.37
2023-02-21T19:54:41.610Z,22.87
2023-02-21T19:57:07.939Z,23.70
2023-02-21T19:59:35.246Z,26.67
2023-02-21T20:02:03.382Z,25.90
2023-02-21T20:04:30.425Z,25.57
2023-02-21T20:06:58.041Z,25.83
2023-02-21T20:09:24.715Z,24.63
2023-02-21T20:11:51.055Z,24.07
2023-02-21T20:14:17.715Z,24.43
2023-02-21T20:16:44.711Z,22.57
2023-02-21T20:19:12.274Z,23.03
2023-02-21T20:21:39.428Z,23.77
2023-02-21T20:24:10.160Z,22.40
2023-02-21T20:26:37.107Z,24.23
2023-02-21T20:29:04.135Z,24.50
2023-02-21T20:31:32.766Z,22.90
2023-02-21T20:34:03.336Z,23.73
2023-02-21T20:36:33.181Z,23.90
2023-02-21T20:38:59.775Z,22.63
2023-02-21T20:41:33.327Z,23.03
2023-02-21T20:43:59.714Z,22.10
2023-02-21T20:46:26.917Z,22.57
2023-02-21T20:48:53.304Z,21.30
2023-02-21T20:51:30.925Z,22.33
2023-02-21T20:54:00.105Z,22.03
2023-02-21T20:56:39.366Z,20.57
2023-02-21T20:59:07.985Z,24.07
2023-02-21T21:01:37.776Z,21.73
2023-02-21T21:04:07.955Z,20.60
2023-02-21T21:06:36.586Z,20.67
2023-02-21T21:09:03.273Z,21.67
2023-02-21T21:11:30.360Z,21.17
2023-02-21T21:13:56.702Z,20.40
2023-02-21T21:16:23.109Z,20.73
2023-02-21T21:18:49.457Z,20.57
2023-02-21T21:21:16.151Z,21.33
2023-02-21T21:23:42.933Z,19.77
2023-02-21T21:26:09.511Z,20.97
2023-02-21T21:28:36.209Z,21.13
2023-02-21T21:31:03.382Z,20.83
2023-02-21T21:33:29.824Z,21.23
2023-02-21T21:35:58.343Z,21.27
2023-02-21T21:38:26.620Z,22.50
2023-02-21T21:40:56.773Z,23.83
2023-02-21T21:43:24.532Z,21.40
2023-02-21T21:45:51.299Z,20.97
2023-02-21T21:48:18.478Z,23.03
2023-02-21T21:50:45.087Z,22.20
2023-02-21T21:53:11.757Z,24.70
2023-02-21T21:55:38.718Z,22.57
2023-02-21T21:58:13.640Z,21.77
2023-02-21T22:00:41.917Z,22.33
2023-02-21T22:03:13.984Z,23.23
2023-02-21T22:05:44.509Z,22.73
2023-02-21T22:08:16.384Z,26.20
2023-02-21T22:10:44.897Z,23.00
2023-02-21T22:13:14.692Z,23.90
2023-02-21T22:15:43.966Z,24.17
2023-02-21T22:18:11.757Z,22.87
2023-02-21T22:20:38.237Z,23.13
2023-02-21T22:23:06.327Z,21.23
2023-02-21T22:25:36.691Z,21.60
2023-02-21T22:28:09.305Z,22.40
2023-02-21T22:30:39.824Z,21.60
2023-02-21T22:33:08.050Z,22.30
2023-02-21T22:35:34.642Z,23.90
2023-02-21T22:38:05.099Z,22.10
2023-02-21T22:40:35.316Z,23.30
2023-02-21T22:43:08.780Z,25.80
2023-02-21T22:45:36.300Z,23.47
2023-02-21T22:48:05.779Z,23.70
2023-02-21T22:50:37.319Z,22.67
2023-02-21T22:53:08.171Z,23.30
2023-02-21T22:55:36.864Z,21.83
2023-02-21T22:58:06.347Z,22.20
2023-02-21T23:00:34.367Z,24.10
2023-02-21T23:03:12.517Z,22.73
2023-02-21T23:05:43.911Z,25.43
2023-02-21T23:08:12.755Z,24.17
2023-02-21T23:10:40.231Z,24.70
2023-02-21T23:13:10.044Z,26.73
2023-02-21T23:15:36.878Z,25.77
2023-02-21T23:18:04.388Z,24.77
2023-02-21T23:20:30.855Z,26.47
2023-02-21T23:22:58.792Z,27.83
2023-02-21T23:25:35.037Z,26.80
2023-02-21T23:28:12.033Z,25.80
2023-02-21T23:30:42.697Z,24.77
2023-02-21T23:33:15.694Z,26.67
2023-02-21T23:35:49.126Z,26.57
2023-02-21T23:38:16.718Z,25.80
2023-02-21T23:40:48.013Z,25.40
2023-02-21T23:43:16.707Z,26.77
2023-02-21T23:45:43.784Z,24.87
2023-02-21T23:48:15.550Z,26.30
2023-02-21T23:50:46.908Z,24.90
2023-02-21T23:53:16.850Z,26.33
2023-02-21T23:55:46.324Z,25.87
2023-02-21T23:58:16.115Z,27.33
